sensor_id;sensor_type;location;lat;lon;timestamp;pressure;altitude;pressure_sealevel;temperature;humidity
61769;BME280;47669;48.712;9.016;2023-06-24T00:02:08;97448.47;;;13.82;73.83
61769;BME280;47669;48.712;9.016;2023-06-24T00:04:34;97445.69;;;13.63;74.22
61769;BME280;47669;48.712;9.016;2023-06-24T00:07:00;97450.00;;;13.31;76.39
61769;BME280;47669;48.712;9.016;2023-06-24T00:09:26;97451.84;;;13.31;76.38
61769;BME280;47669;48.712;9.016;2023-06-24T00:11:53;97456.81;;;13.92;73.03
61769;BME280;47669;48.712;9.016;2023-06-24T00:14:19;97457.06;;;13.91;73.09
61769;BME280;47669;48.712;9.016;2023-06-24T00:16:46;97459.19;;;13.35;75.71
61769;BME280;47669;48.712;9.016;2023-06-24T00:19:16;97455.91;;;13.20;76.23
61769;BME280;47669;48.712;9.016;2023-06-24T00:21:43;97451.63;;;13.32;76.43
61769;BME280;47669;48.712;9.016;2023-06-24T00:24:09;97453.06;;;13.08;77.23
61769;BME280;47669;48.712;9.016;2023-06-24T00:26:34;97449.56;;;13.61;75.05
61769;BME280;47669;48.712;9.016;2023-06-24T00:29:00;97447.53;;;13.43;75.37
61769;BME280;47669;48.712;9.016;2023-06-24T00:31:25;97455.47;;;13.10;77.22
61769;BME280;47669;48.712;9.016;2023-06-24T00:33:50;97456.53;;;13.02;77.54
61769;BME280;47669;48.712;9.016;2023-06-24T00:36:17;97456.09;;;13.05;77.87
61769;BME280;47669;48.712;9.016;2023-06-24T00:38:42;97452.44;;;13.13;76.54
61769;BME280;47669;48.712;9.016;2023-06-24T00:41:08;97455.09;;;13.19;76.92
61769;BME280;47669;48.712;9.016;2023-06-24T00:43:34;97451.22;;;13.15;76.84
61769;BME280;47669;48.712;9.016;2023-06-24T00:46:00;97450.78;;;13.05;78.00
61769;BME280;47669;48.712;9.016;2023-06-24T00:48:25;97454.25;;;13.06;77.29
61769;BME280;47669;48.712;9.016;2023-06-24T00:50:51;97453.44;;;12.85;77.66
61769;BME280;47669;48.712;9.016;2023-06-24T00:53:17;97453.25;;;12.93;77.66
61769;BME280;47669;48.712;9.016;2023-06-24T00:55:43;97449.78;;;13.46;74.96
61769;BME280;47669;48.712;9.016;2023-06-24T00:58:10;97451.41;;;13.54;74.84
61769;BME280;47669;48.712;9.016;2023-06-24T01:00:35;97456.06;;;12.72;78.85
61769;BME280;47669;48.712;9.016;2023-06-24T01:03:02;97452.59;;;12.65;78.62
61769;BME280;47669;48.712;9.016;2023-06-24T01:05:28;97455.25;;;12.78;77.66
61769;BME280;47669;48.712;9.016;2023-06-24T01:08:00;97457.09;;;12.77;77.49
61769;BME280;47669;48.712;9.016;2023-06-24T01:10:26;97449.50;;;12.54;78.49
61769;BME280;47669;48.712;9.016;2023-06-24T01:12:51;97452.84;;;12.76;78.41
61769;BME280;47669;48.712;9.016;2023-06-24T01:15:18;97447.09;;;12.79;78.02
61769;BME280;47669;48.712;9.016;2023-06-24T01:18:00;97447.91;;;12.80;77.18
61769;BME280;47669;48.712;9.016;2023-06-24T01:20:33;97444.66;;;12.78;78.18
61769;BME280;47669;48.712;9.016;2023-06-24T01:23:34;97445.22;;;12.47;78.95
61769;BME280;47669;48.712;9.016;2023-06-24T01:31:59;97455.00;;;12.46;78.97
61769;BME280;47669;48.712;9.016;2023-06-24T01:37:21;97450.06;;;12.30;79.98
61769;BME280;47669;48.712;9.016;2023-06-24T01:39:59;97440.38;;;12.77;77.60
61769;BME280;47669;48.712;9.016;2023-06-24T01:42:27;97447.44;;;12.43;79.78
61769;BME280;47669;48.712;9.016;2023-06-24T01:44:55;97449.03;;;12.31;80.12
61769;BME280;47669;48.712;9.016;2023-06-24T01:47:26;97447.88;;;12.47;78.90
61769;BME280;47669;48.712;9.016;2023-06-24T01:49:53;97449.25;;;12.36;79.32
61769;BME280;47669;48.712;9.016;2023-06-24T01:52:21;97450.72;;;12.45;78.18
61769;BME280;47669;48.712;9.016;2023-06-24T01:54:49;97450.28;;;12.41;79.12
61769;BME280;47669;48.712;9.016;2023-06-24T01:57:16;97447.78;;;12.20;79.85
61769;BME280;47669;48.712;9.016;2023-06-24T01:59:45;97446.50;;;12.02;80.50
61769;BME280;47669;48.712;9.016;2023-06-24T02:02:12;97448.50;;;11.94;81.60
61769;BME280;47669;48.712;9.016;2023-06-24T02:04:39;97445.59;;;12.37;79.84
61769;BME280;47669;48.712;9.016;2023-06-24T02:07:06;97444.78;;;12.30;79.79
61769;BME280;47669;48.712;9.016;2023-06-24T02:09:32;97448.84;;;12.26;80.16
61769;BME280;47669;48.712;9.016;2023-06-24T02:12:01;97460.53;;;11.96;80.06
61769;BME280;47669;48.712;9.016;2023-06-24T02:14:27;97451.53;;;11.91;80.64
61769;BME280;47669;48.712;9.016;2023-06-24T02:16:55;97453.06;;;11.78;80.14
61769;BME280;47669;48.712;9.016;2023-06-24T02:19:27;97451.41;;;11.71;81.85
61769;BME280;47669;48.712;9.016;2023-06-24T02:21:56;97447.13;;;11.76;82.01
61769;BME280;47669;48.712;9.016;2023-06-24T02:24:21;97447.78;;;11.85;81.03
61769;BME280;47669;48.712;9.016;2023-06-24T02:26:47;97452.41;;;11.70;81.49
61769;BME280;47669;48.712;9.016;2023-06-24T02:29:13;97447.50;;;11.67;81.84
61769;BME280;47669;48.712;9.016;2023-06-24T02:31:39;97436.78;;;11.81;81.00
61769;BME280;47669;48.712;9.016;2023-06-24T02:34:05;97437.38;;;12.18;79.28
61769;BME280;47669;48.712;9.016;2023-06-24T02:36:30;97445.97;;;11.79;81.49
61769;BME280;47669;48.712;9.016;2023-06-24T02:38:55;97440.44;;;11.80;81.04
61769;BME280;47669;48.712;9.016;2023-06-24T02:41:21;97433.06;;;11.69;80.80
61769;BME280;47669;48.712;9.016;2023-06-24T02:43:46;97433.13;;;11.82;80.28
61769;BME280;47669;48.712;9.016;2023-06-24T02:46:11;97434.16;;;11.81;79.98
61769;BME280;47669;48.712;9.016;2023-06-24T02:48:38;97442.13;;;11.53;82.70
61769;BME280;47669;48.712;9.016;2023-06-24T02:51:06;97442.44;;;11.72;82.04
61769;BME280;47669;48.712;9.016;2023-06-24T02:53:32;97441.28;;;12.29;78.62
61769;BME280;47669;48.712;9.016;2023-06-24T02:55:59;97440.44;;;12.15;78.47
61769;BME280;47669;48.712;9.016;2023-06-24T02:58:24;97444.97;;;11.52;82.13
61769;BME280;47669;48.712;9.016;2023-06-24T03:01:00;97445.09;;;11.37;83.32
61769;BME280;47669;48.712;9.016;2023-06-24T03:03:26;97443.69;;;11.41;83.12
61769;BME280;47669;48.712;9.016;2023-06-24T03:05:53;97445.06;;;11.30;83.47
61769;BME280;47669;48.712;9.016;2023-06-24T03:08:19;97447.94;;;11.35;82.97
61769;BME280;47669;48.712;9.016;2023-06-24T03:10:44;97452.16;;;11.93;80.87
61769;BME280;47669;48.712;9.016;2023-06-24T03:13:10;97452.66;;;12.23;79.15
61769;BME280;47669;48.712;9.016;2023-06-24T03:15:35;97446.50;;;12.02;79.36
61769;BME280;47669;48.712;9.016;2023-06-24T03:18:00;97451.69;;;11.48;81.71
61769;BME280;47669;48.712;9.016;2023-06-24T03:20:26;97451.97;;;11.31;83.20
61769;BME280;47669;48.712;9.016;2023-06-24T03:22:51;97454.53;;;11.18;83.22
61769;BME280;47669;48.712;9.016;2023-06-24T03:25:17;97451.31;;;11.57;81.21
61769;BME280;47669;48.712;9.016;2023-06-24T03:27:42;97456.16;;;11.47;81.25
61769;BME280;47669;48.712;9.016;2023-06-24T03:30:08;97461.59;;;11.39;81.83
61769;BME280;47669;48.712;9.016;2023-06-24T03:32:35;97459.47;;;11.56;81.67
61769;BME280;47669;48.712;9.016;2023-06-24T03:35:02;97458.31;;;11.72;81.32
61769;BME280;47669;48.712;9.016;2023-06-24T03:37:27;97462.66;;;11.79;81.05
61769;BME280;47669;48.712;9.016;2023-06-24T03:39:53;97467.78;;;11.81;80.81
61769;BME280;47669;48.712;9.016;2023-06-24T03:42:18;97472.56;;;11.36;83.27
61769;BME280;47669;48.712;9.016;2023-06-24T03:44:44;97480.69;;;11.34;83.40
61769;BME280;47669;48.712;9.016;2023-06-24T03:47:09;97485.16;;;11.34;83.93
61769;BME280;47669;48.712;9.016;2023-06-24T03:49:35;97481.69;;;11.61;81.87
61769;BME280;47669;48.712;9.016;2023-06-24T03:52:00;97486.25;;;11.74;80.90
61769;BME280;47669;48.712;9.016;2023-06-24T03:54:25;97484.81;;;11.72;82.13
61769;BME280;47669;48.712;9.016;2023-06-24T03:56:50;97486.47;;;11.73;81.31
61769;BME280;47669;48.712;9.016;2023-06-24T03:59:16;97486.06;;;11.76;81.50
61769;BME280;47669;48.712;9.016;2023-06-24T04:01:41;97492.06;;;11.91;81.46
61769;BME280;47669;48.712;9.016;2023-06-24T04:04:06;97496.00;;;12.02;81.37
61769;BME280;47669;48.712;9.016;2023-06-24T04:06:31;97492.28;;;11.90;80.35
61769;BME280;47669;48.712;9.016;2023-06-24T04:08:57;97500.63;;;11.93;80.89
61769;BME280;47669;48.712;9.016;2023-06-24T04:11:22;97494.28;;;11.88;81.53
61769;BME280;47669;48.712;9.016;2023-06-24T04:13:47;97498.31;;;11.77;82.49
61769;BME280;47669;48.712;9.016;2023-06-24T04:16:14;97504.38;;;12.06;81.97
61769;BME280;47669;48.712;9.016;2023-06-24T04:18:39;97501.09;;;12.04;82.70
61769;BME280;47669;48.712;9.016;2023-06-24T04:21:05;97503.44;;;12.20;81.06
61769;BME280;47669;48.712;9.016;2023-06-24T04:23:31;97506.44;;;12.65;78.82
61769;BME280;47669;48.712;9.016;2023-06-24T04:25:57;97513.94;;;12.48;79.81
61769;BME280;47669;48.712;9.016;2023-06-24T04:28:22;97508.28;;;12.58;79.68
61769;BME280;47669;48.712;9.016;2023-06-24T04:30:47;97510.13;;;12.64;79.93
61769;BME280;47669;48.712;9.016;2023-06-24T04:33:13;97504.47;;;12.87;79.63
61769;BME280;47669;48.712;9.016;2023-06-24T04:35:38;97504.47;;;13.20;79.35
61769;BME280;47669;48.712;9.016;2023-06-24T04:38:03;97515.69;;;12.89;79.91
61769;BME280;47669;48.712;9.016;2023-06-24T04:40:28;97514.72;;;13.17;79.03
61769;BME280;47669;48.712;9.016;2023-06-24T04:42:55;97512.88;;;13.17;78.15
61769;BME280;47669;48.712;9.016;2023-06-24T04:45:20;97505.34;;;13.61;77.58
61769;BME280;47669;48.712;9.016;2023-06-24T04:47:46;97514.53;;;13.45;78.72
61769;BME280;47669;48.712;9.016;2023-06-24T04:50:11;97507.78;;;13.62;76.85
61769;BME280;47669;48.712;9.016;2023-06-24T04:52:37;97513.84;;;13.96;75.61
61769;BME280;47669;48.712;9.016;2023-06-24T04:55:04;97517.41;;;14.29;73.90
61769;BME280;47669;48.712;9.016;2023-06-24T04:57:30;97509.28;;;14.17;74.55
61769;BME280;47669;48.712;9.016;2023-06-24T04:59:57;97508.69;;;14.15;75.42
61769;BME280;47669;48.712;9.016;2023-06-24T05:02:23;97508.47;;;14.23;75.47
61769;BME280;47669;48.712;9.016;2023-06-24T05:04:48;97509.78;;;14.45;74.06
61769;BME280;47669;48.712;9.016;2023-06-24T05:07:14;97506.31;;;14.58;73.58
61769;BME280;47669;48.712;9.016;2023-06-24T05:09:39;97507.28;;;14.64;73.53
61769;BME280;47669;48.712;9.016;2023-06-24T05:12:05;97517.34;;;14.94;72.11
61769;BME280;47669;48.712;9.016;2023-06-24T05:14:30;97516.75;;;14.92;73.58
61769;BME280;47669;48.712;9.016;2023-06-24T05:16:56;97509.78;;;15.47;70.42
61769;BME280;47669;48.712;9.016;2023-06-24T05:19:21;97516.59;;;15.43;70.70
61769;BME280;47669;48.712;9.016;2023-06-24T05:21:46;97515.88;;;15.55;70.55
61769;BME280;47669;48.712;9.016;2023-06-24T05:24:12;97523.97;;;15.66;69.94
61769;BME280;47669;48.712;9.016;2023-06-24T05:26:37;97525.81;;;15.66;69.42
61769;BME280;47669;48.712;9.016;2023-06-24T05:29:02;97522.81;;;15.81;68.14
61769;BME280;47669;48.712;9.016;2023-06-24T05:31:28;97521.22;;;16.17;67.54
61769;BME280;47669;48.712;9.016;2023-06-24T05:33:53;97520.50;;;16.10;68.04
61769;BME280;47669;48.712;9.016;2023-06-24T05:36:19;97521.19;;;16.23;67.53
61769;BME280;47669;48.712;9.016;2023-06-24T05:38:44;97517.75;;;16.16;68.95
61769;BME280;47669;48.712;9.016;2023-06-24T05:41:09;97520.72;;;16.26;67.37
61769;BME280;47669;48.712;9.016;2023-06-24T05:43:34;97517.00;;;16.46;66.76
61769;BME280;47669;48.712;9.016;2023-06-24T05:45:59;97519.16;;;16.56;67.00
61769;BME280;47669;48.712;9.016;2023-06-24T05:48:25;97517.09;;;16.88;65.87
61769;BME280;47669;48.712;9.016;2023-06-24T05:50:50;97516.38;;;17.23;64.29
61769;BME280;47669;48.712;9.016;2023-06-24T05:53:16;97515.28;;;17.00;64.84
61769;BME280;47669;48.712;9.016;2023-06-24T05:55:41;97519.56;;;17.01;63.81
61769;BME280;47669;48.712;9.016;2023-06-24T05:58:06;97515.59;;;16.92;63.58
61769;BME280;47669;48.712;9.016;2023-06-24T06:00:32;97515.81;;;17.33;62.70
61769;BME280;47669;48.712;9.016;2023-06-24T06:02:57;97514.13;;;17.08;62.74
61769;BME280;47669;48.712;9.016;2023-06-24T06:05:22;97522.69;;;17.40;61.53
61769;BME280;47669;48.712;9.016;2023-06-24T06:07:48;97524.53;;;17.28;62.34
61769;BME280;47669;48.712;9.016;2023-06-24T06:10:13;97519.63;;;17.25;62.13
61769;BME280;47669;48.712;9.016;2023-06-24T06:12:42;97524.09;;;17.66;61.98
61769;BME280;47669;48.712;9.016;2023-06-24T06:15:08;97520.59;;;17.42;61.42
61769;BME280;47669;48.712;9.016;2023-06-24T06:17:33;97520.72;;;17.47;61.42
61769;BME280;47669;48.712;9.016;2023-06-24T06:19:59;97516.44;;;17.46;60.90
61769;BME280;47669;48.712;9.016;2023-06-24T06:22:24;97513.19;;;17.44;60.66
61769;BME280;47669;48.712;9.016;2023-06-24T06:24:49;97513.31;;;17.61;60.08
61769;BME280;47669;48.712;9.016;2023-06-24T06:27:14;97509.03;;;17.84;60.18
61769;BME280;47669;48.712;9.016;2023-06-24T06:29:40;97510.63;;;17.97;59.61
61769;BME280;47669;48.712;9.016;2023-06-24T06:32:06;97506.53;;;18.29;58.69
61769;BME280;47669;48.712;9.016;2023-06-24T06:34:31;97504.06;;;18.68;58.63
61769;BME280;47669;48.712;9.016;2023-06-24T06:36:56;97505.16;;;18.27;57.70
61769;BME280;47669;48.712;9.016;2023-06-24T06:39:22;97507.78;;;18.79;58.72
61769;BME280;47669;48.712;9.016;2023-06-24T06:41:47;97506.09;;;18.21;57.17
61769;BME280;47669;48.712;9.016;2023-06-24T06:44:12;97508.63;;;18.80;56.42
61769;BME280;47669;48.712;9.016;2023-06-24T06:46:37;97507.06;;;18.43;55.56
61769;BME280;47669;48.712;9.016;2023-06-24T06:49:03;97497.59;;;18.93;55.90
61769;BME280;47669;48.712;9.016;2023-06-24T06:51:28;97498.34;;;18.77;55.84
61769;BME280;47669;48.712;9.016;2023-06-24T06:53:53;97499.59;;;19.31;56.37
61769;BME280;47669;48.712;9.016;2023-06-24T06:56:22;97492.44;;;19.37;56.38
61769;BME280;47669;48.712;9.016;2023-06-24T06:58:49;97501.56;;;18.90;54.92
61769;BME280;47669;48.712;9.016;2023-06-24T07:01:14;97496.09;;;18.85;56.03
61769;BME280;47669;48.712;9.016;2023-06-24T07:03:40;97493.03;;;19.39;55.35
61769;BME280;47669;48.712;9.016;2023-06-24T07:06:05;97490.81;;;19.53;54.62
61769;BME280;47669;48.712;9.016;2023-06-24T07:08:30;97492.19;;;20.11;54.05
61769;BME280;47669;48.712;9.016;2023-06-24T07:10:56;97489.22;;;20.30;52.43
61769;BME280;47669;48.712;9.016;2023-06-24T07:13:21;97484.63;;;19.36;53.32
61769;BME280;47669;48.712;9.016;2023-06-24T07:15:46;97491.19;;;19.96;52.69
61769;BME280;47669;48.712;9.016;2023-06-24T07:18:12;97496.66;;;19.84;53.17
61769;BME280;47669;48.712;9.016;2023-06-24T07:20:37;97493.44;;;20.04;51.37
61769;BME280;47669;48.712;9.016;2023-06-24T07:23:02;97498.47;;;20.61;52.29
61769;BME280;47669;48.712;9.016;2023-06-24T07:25:28;97497.78;;;20.49;51.71
61769;BME280;47669;48.712;9.016;2023-06-24T07:27:54;97499.34;;;20.45;52.13
61769;BME280;47669;48.712;9.016;2023-06-24T07:30:20;97498.22;;;20.41;50.61
61769;BME280;47669;48.712;9.016;2023-06-24T07:32:45;97490.31;;;20.12;51.98
61769;BME280;47669;48.712;9.016;2023-06-24T07:35:10;97488.16;;;20.75;49.13
61769;BME280;47669;48.712;9.016;2023-06-24T07:37:36;97480.75;;;21.14;47.82
61769;BME280;47669;48.712;9.016;2023-06-24T07:40:01;97481.75;;;21.08;48.92
61769;BME280;47669;48.712;9.016;2023-06-24T07:42:28;97487.59;;;21.32;48.42
61769;BME280;47669;48.712;9.016;2023-06-24T07:44:53;97488.72;;;21.09;48.55
61769;BME280;47669;48.712;9.016;2023-06-24T07:47:19;97484.25;;;20.88;49.18
61769;BME280;47669;48.712;9.016;2023-06-24T07:49:44;97488.28;;;20.90;51.16
61769;BME280;47669;48.712;9.016;2023-06-24T07:52:10;97484.59;;;20.69;49.56
61769;BME280;47669;48.712;9.016;2023-06-24T07:54:35;97488.59;;;20.67;49.74
61769;BME280;47669;48.712;9.016;2023-06-24T07:57:01;97481.22;;;21.11;48.70
61769;BME280;47669;48.712;9.016;2023-06-24T07:59:26;97477.94;;;21.69;48.38
61769;BME280;47669;48.712;9.016;2023-06-24T08:01:51;97478.56;;;20.84;49.05
61769;BME280;47669;48.712;9.016;2023-06-24T08:04:17;97472.09;;;21.82;49.87
61769;BME280;47669;48.712;9.016;2023-06-24T08:06:42;97479.06;;;21.08;49.80
61769;BME280;47669;48.712;9.016;2023-06-24T08:09:08;97477.94;;;21.69;49.64
61769;BME280;47669;48.712;9.016;2023-06-24T08:11:33;97471.03;;;22.36;45.73
61769;BME280;47669;48.712;9.016;2023-06-24T08:13:58;97468.91;;;22.38;46.12
61769;BME280;47669;48.712;9.016;2023-06-24T08:16:23;97476.13;;;22.27;45.39
61769;BME280;47669;48.712;9.016;2023-06-24T08:18:49;97470.25;;;22.35;45.54
61769;BME280;47669;48.712;9.016;2023-06-24T08:21:14;97464.00;;;22.30;45.58
61769;BME280;47669;48.712;9.016;2023-06-24T08:23:39;97466.16;;;22.33;45.27
61769;BME280;47669;48.712;9.016;2023-06-24T08:26:06;97468.53;;;22.19;46.57
61769;BME280;47669;48.712;9.016;2023-06-24T08:28:31;97462.44;;;22.44;44.79
61769;BME280;47669;48.712;9.016;2023-06-24T08:30:56;97473.13;;;22.24;45.35
61769;BME280;47669;48.712;9.016;2023-06-24T08:33:21;97460.34;;;22.67;45.03
61769;BME280;47669;48.712;9.016;2023-06-24T08:35:47;97466.53;;;22.57;43.60
61769;BME280;47669;48.712;9.016;2023-06-24T08:38:12;97455.44;;;22.38;45.26
61769;BME280;47669;48.712;9.016;2023-06-24T08:40:38;97463.41;;;23.22;43.38
61769;BME280;47669;48.712;9.016;2023-06-24T08:43:05;97451.25;;;23.45;42.48
61769;BME280;47669;48.712;9.016;2023-06-24T08:45:31;97455.31;;;23.06;42.52
61769;BME280;47669;48.712;9.016;2023-06-24T08:47:56;97453.16;;;23.24;40.13
61769;BME280;47669;48.712;9.016;2023-06-24T08:50:27;97453.41;;;23.43;41.81
61769;BME280;47669;48.712;9.016;2023-06-24T08:52:56;97458.16;;;24.12;39.38
61769;BME280;47669;48.712;9.016;2023-06-24T08:55:22;97469.00;;;23.97;40.19
61769;BME280;47669;48.712;9.016;2023-06-24T08:57:49;97453.31;;;24.09;39.58
61769;BME280;47669;48.712;9.016;2023-06-24T09:00:15;97457.91;;;24.09;38.29
61769;BME280;47669;48.712;9.016;2023-06-24T09:02:40;97449.59;;;23.64;40.26
61769;BME280;47669;48.712;9.016;2023-06-24T09:05:06;97452.84;;;22.89;39.49
61769;BME280;47669;48.712;9.016;2023-06-24T09:07:32;97446.38;;;22.85;40.25
61769;BME280;47669;48.712;9.016;2023-06-24T09:09:58;97449.34;;;23.81;39.76
61769;BME280;47669;48.712;9.016;2023-06-24T09:12:25;97441.03;;;23.26;40.08
61769;BME280;47669;48.712;9.016;2023-06-24T09:14:51;97452.59;;;22.91;39.41
61769;BME280;47669;48.712;9.016;2023-06-24T09:17:17;97439.47;;;24.26;40.15
61769;BME280;47669;48.712;9.016;2023-06-24T09:19:43;97442.41;;;24.85;37.94
61769;BME280;47669;48.712;9.016;2023-06-24T09:22:10;97432.75;;;24.73;38.28
61769;BME280;47669;48.712;9.016;2023-06-24T09:24:42;97439.50;;;24.76;38.68
61769;BME280;47669;48.712;9.016;2023-06-24T09:27:11;97436.38;;;24.48;37.26
61769;BME280;47669;48.712;9.016;2023-06-24T09:29:36;97433.03;;;24.12;41.35
61769;BME280;47669;48.712;9.016;2023-06-24T09:32:05;97432.31;;;24.56;39.98
61769;BME280;47669;48.712;9.016;2023-06-24T09:34:31;97427.03;;;24.30;39.84
61769;BME280;47669;48.712;9.016;2023-06-24T09:36:58;97411.41;;;24.72;35.82
61769;BME280;47669;48.712;9.016;2023-06-24T09:39:25;97413.38;;;24.61;37.23
61769;BME280;47669;48.712;9.016;2023-06-24T09:41:57;97411.06;;;25.18;37.50
61769;BME280;47669;48.712;9.016;2023-06-24T09:44:23;97410.78;;;25.19;36.14
61769;BME280;47669;48.712;9.016;2023-06-24T09:46:49;97411.63;;;25.49;35.67
61769;BME280;47669;48.712;9.016;2023-06-24T09:49:14;97409.38;;;25.27;35.79
61769;BME280;47669;48.712;9.016;2023-06-24T09:51:43;97414.47;;;25.34;35.10
61769;BME280;47669;48.712;9.016;2023-06-24T09:54:10;97408.75;;;25.01;35.90
61769;BME280;47669;48.712;9.016;2023-06-24T09:56:36;97413.44;;;24.46;35.16
61769;BME280;47669;48.712;9.016;2023-06-24T09:59:04;97406.19;;;23.76;36.51
61769;BME280;47669;48.712;9.016;2023-06-24T10:01:36;97408.09;;;22.98;37.83
61769;BME280;47669;48.712;9.016;2023-06-24T10:04:04;97402.47;;;23.15;38.32
61769;BME280;47669;48.712;9.016;2023-06-24T10:06:29;97400.38;;;24.08;36.80
61769;BME280;47669;48.712;9.016;2023-06-24T10:08:56;97395.69;;;24.79;36.95
61769;BME280;47669;48.712;9.016;2023-06-24T10:11:21;97394.81;;;24.49;34.79
61769;BME280;47669;48.712;9.016;2023-06-24T10:13:47;97383.16;;;25.28;35.07
61769;BME280;47669;48.712;9.016;2023-06-24T10:16:12;97380.91;;;25.35;34.21
61769;BME280;47669;48.712;9.016;2023-06-24T10:18:39;97395.03;;;24.92;34.80
61769;BME280;47669;48.712;9.016;2023-06-24T10:21:06;97383.91;;;24.99;36.34
61769;BME280;47669;48.712;9.016;2023-06-24T10:23:41;97379.06;;;25.54;34.53
61769;BME280;47669;48.712;9.016;2023-06-24T10:26:22;97389.72;;;24.37;39.16
61769;BME280;47669;48.712;9.016;2023-06-24T10:34:32;97374.88;;;23.65;38.12
61769;BME280;47669;48.712;9.016;2023-06-24T10:44:56;97350.69;;;25.52;36.03
61769;BME280;47669;48.712;9.016;2023-06-24T10:47:22;97344.81;;;25.15;32.63
61769;BME280;47669;48.712;9.016;2023-06-24T10:49:48;97368.41;;;24.31;36.60
61769;BME280;47669;48.712;9.016;2023-06-24T10:52:14;97355.84;;;24.06;36.51
61769;BME280;47669;48.712;9.016;2023-06-24T10:54:40;97357.34;;;23.67;36.61
61769;BME280;47669;48.712;9.016;2023-06-24T10:57:07;97358.03;;;24.53;38.72
61769;BME280;47669;48.712;9.016;2023-06-24T11:02:09;97341.75;;;24.93;35.59
61769;BME280;47669;48.712;9.016;2023-06-24T11:05:10;97331.94;;;26.79;31.21
61769;BME280;47669;48.712;9.016;2023-06-24T11:07:37;97333.59;;;26.94;34.07
61769;BME280;47669;48.712;9.016;2023-06-24T11:10:13;97324.47;;;27.04;31.90
61769;BME280;47669;48.712;9.016;2023-06-24T11:12:40;97331.56;;;26.86;32.46
61769;BME280;47669;48.712;9.016;2023-06-24T11:15:08;97330.00;;;27.13;29.82
61769;BME280;47669;48.712;9.016;2023-06-24T11:17:34;97323.78;;;27.87;31.65
61769;BME280;47669;48.712;9.016;2023-06-24T11:20:00;97325.50;;;28.19;32.45
61769;BME280;47669;48.712;9.016;2023-06-24T11:22:26;97315.50;;;27.64;31.24
61769;BME280;47669;48.712;9.016;2023-06-24T11:24:53;97320.44;;;27.48;32.27
61769;BME280;47669;48.712;9.016;2023-06-24T11:27:24;97318.72;;;27.80;29.85
61769;BME280;47669;48.712;9.016;2023-06-24T11:29:52;97318.22;;;27.50;30.50
61769;BME280;47669;48.712;9.016;2023-06-24T11:32:18;97314.41;;;26.91;32.51
61769;BME280;47669;48.712;9.016;2023-06-24T11:34:43;97307.75;;;27.57;31.81
61769;BME280;47669;48.712;9.016;2023-06-24T11:37:13;97311.69;;;27.51;29.21
61769;BME280;47669;48.712;9.016;2023-06-24T11:39:39;97305.34;;;27.42;28.67
61769;BME280;47669;48.712;9.016;2023-06-24T11:42:07;97304.44;;;27.74;29.64
61769;BME280;47669;48.712;9.016;2023-06-24T11:44:36;97293.47;;;28.30;29.07
61769;BME280;47669;48.712;9.016;2023-06-24T11:47:06;97291.38;;;27.49;28.05
61769;BME280;47669;48.712;9.016;2023-06-24T11:49:32;97285.88;;;28.18;30.71
61769;BME280;47669;48.712;9.016;2023-06-24T11:51:57;97287.84;;;28.62;29.03
61769;BME280;47669;48.712;9.016;2023-06-24T11:54:22;97279.81;;;27.43;28.15
61769;BME280;47669;48.712;9.016;2023-06-24T11:56:52;97283.00;;;27.73;29.26
61769;BME280;47669;48.712;9.016;2023-06-24T11:59:23;97274.25;;;27.76;28.26
61769;BME280;47669;48.712;9.016;2023-06-24T12:01:57;97280.50;;;28.27;26.68
61769;BME280;47669;48.712;9.016;2023-06-24T12:04:29;97279.88;;;28.07;27.22
61769;BME280;47669;48.712;9.016;2023-06-24T12:06:54;97274.72;;;28.06;27.25
61769;BME280;47669;48.712;9.016;2023-06-24T12:09:20;97271.63;;;28.57;26.94
61769;BME280;47669;48.712;9.016;2023-06-24T12:11:45;97266.50;;;27.83;27.54
61769;BME280;47669;48.712;9.016;2023-06-24T12:14:10;97258.00;;;27.48;27.21
61769;BME280;47669;48.712;9.016;2023-06-24T12:16:36;97257.72;;;28.59;27.95
61769;BME280;47669;48.712;9.016;2023-06-24T12:19:02;97259.31;;;27.65;26.92
61769;BME280;47669;48.712;9.016;2023-06-24T12:21:27;97255.56;;;27.88;27.74
61769;BME280;47669;48.712;9.016;2023-06-24T12:23:53;97251.97;;;27.24;26.95
61769;BME280;47669;48.712;9.016;2023-06-24T12:26:18;97248.00;;;27.99;28.34
61769;BME280;47669;48.712;9.016;2023-06-24T12:28:43;97243.59;;;27.61;27.29
61769;BME280;47669;48.712;9.016;2023-06-24T12:31:09;97232.66;;;28.62;26.94
61769;BME280;47669;48.712;9.016;2023-06-24T12:33:34;97244.19;;;28.45;28.38
61769;BME280;47669;48.712;9.016;2023-06-24T12:35:59;97241.09;;;29.14;26.06
61769;BME280;47669;48.712;9.016;2023-06-24T12:38:25;97233.25;;;28.36;27.24
61769;BME280;47669;48.712;9.016;2023-06-24T12:40:50;97228.81;;;28.63;27.42
61769;BME280;47669;48.712;9.016;2023-06-24T12:43:16;97232.03;;;29.28;26.30
61769;BME280;47669;48.712;9.016;2023-06-24T12:45:41;97219.72;;;28.99;27.40
61769;BME280;47669;48.712;9.016;2023-06-24T12:48:10;97226.03;;;28.77;26.44
61769;BME280;47669;48.712;9.016;2023-06-24T12:50:35;97220.63;;;29.83;27.00
61769;BME280;47669;48.712;9.016;2023-06-24T12:53:01;97211.75;;;28.26;26.73
61769;BME280;47669;48.712;9.016;2023-06-24T12:55:28;97217.25;;;28.89;26.90
61769;BME280;47669;48.712;9.016;2023-06-24T12:57:53;97211.47;;;29.79;26.57
61769;BME280;47669;48.712;9.016;2023-06-24T13:00:22;97216.19;;;28.45;25.42
61769;BME280;47669;48.712;9.016;2023-06-24T13:02:48;97206.44;;;29.06;25.12
61769;BME280;47669;48.712;9.016;2023-06-24T13:05:14;97202.00;;;29.10;23.95
61769;BME280;47669;48.712;9.016;2023-06-24T13:07:39;97202.66;;;30.17;28.79
61769;BME280;47669;48.712;9.016;2023-06-24T13:10:05;97195.53;;;29.55;27.75
61769;BME280;47669;48.712;9.016;2023-06-24T13:12:34;97199.41;;;28.20;28.59
61769;BME280;47669;48.712;9.016;2023-06-24T13:15:00;97189.19;;;30.47;23.99
61769;BME280;47669;48.712;9.016;2023-06-24T13:17:25;97189.22;;;29.86;25.22
61769;BME280;47669;48.712;9.016;2023-06-24T13:19:51;97189.91;;;28.85;23.10
61769;BME280;47669;48.712;9.016;2023-06-24T13:22:17;97191.00;;;28.84;24.45